createdAt,value
2017-05-28T00:00:28.690Z,4.80
2017-05-28T00:02:55.406Z,4.84
2017-05-28T00:05:22.173Z,5.46
2017-05-28T00:07:48.891Z,5.26
2017-05-28T00:10:15.616Z,5.40
2017-05-28T00:12:42.332Z,4.70
2017-05-28T00:15:09.044Z,5.30
2017-05-28T00:17:35.765Z,5.58
2017-05-28T00:20:02.536Z,5.30
2017-05-28T00:22:29.257Z,5.40
2017-05-28T00:24:55.976Z,4.60
2017-05-28T00:27:22.699Z,5.00
2017-05-28T00:29:49.426Z,5.68
2017-05-28T00:32:16.144Z,5.50
2017-05-28T00:34:42.907Z,5.28
2017-05-28T00:37:09.629Z,5.46
2017-05-28T00:39:36.345Z,5.28
2017-05-28T00:42:03.066Z,5.20
2017-05-28T00:44:29.838Z,6.00
2017-05-28T00:46:56.557Z,5.98
2017-05-28T00:49:23.334Z,5.14
2017-05-28T00:51:50.059Z,5.70
2017-05-28T00:54:16.779Z,5.94
2017-05-28T00:56:43.488Z,5.76
2017-05-28T00:59:10.206Z,5.26
2017-05-28T01:01:36.929Z,5.00
2017-05-28T01:04:03.694Z,6.32
2017-05-28T01:06:30.420Z,6.32
2017-05-28T01:08:57.139Z,5.86
2017-05-28T01:11:23.857Z,6.70
2017-05-28T01:13:50.581Z,6.46
2017-05-28T01:16:17.295Z,5.96
2017-05-28T01:18:44.026Z,6.36
2017-05-28T01:21:10.753Z,6.46
2017-05-28T01:23:37.470Z,5.98
2017-05-28T01:26:04.185Z,6.96
2017-05-28T01:28:30.920Z,5.90
2017-05-28T01:30:57.670Z,5.94
2017-05-28T01:33:24.433Z,6.66
2017-05-28T01:35:51.185Z,6.42
2017-05-28T01:38:17.913Z,6.40
2017-05-28T01:40:44.647Z,6.04
2017-05-28T01:43:11.377Z,5.88
2017-05-28T01:45:38.124Z,6.38
2017-05-28T01:48:04.898Z,6.44
2017-05-28T01:50:31.658Z,6.94
2017-05-28T01:52:58.377Z,6.64
2017-05-28T01:55:25.143Z,6.82
2017-05-28T01:57:51.863Z,6.20
2017-05-28T02:00:18.589Z,8.00
2017-05-28T02:02:45.322Z,6.50
2017-05-28T02:05:12.038Z,6.78
2017-05-28T02:07:38.749Z,6.36
2017-05-28T02:10:05.512Z,6.44
2017-05-28T02:12:32.242Z,7.30
2017-05-28T02:14:58.963Z,6.58
2017-05-28T02:17:25.697Z,7.30
2017-05-28T02:19:52.428Z,7.08
2017-05-28T02:22:19.154Z,7.18
2017-05-28T02:24:45.883Z,6.54
2017-05-28T02:27:12.601Z,7.44
2017-05-28T02:29:39.320Z,7.20
2017-05-28T02:32:06.089Z,7.38
2017-05-28T02:34:32.800Z,6.30
2017-05-28T02:36:59.512Z,7.60
2017-05-28T02:39:26.239Z,7.46
2017-05-28T02:41:53.425Z,7.66
2017-05-28T02:44:20.145Z,8.00
2017-05-28T02:46:46.919Z,8.10
2017-05-28T02:49:13.638Z,8.28
2017-05-28T02:51:40.353Z,7.32
2017-05-28T02:54:07.097Z,7.72
2017-05-28T02:56:33.812Z,6.92
2017-05-28T02:59:00.529Z,6.76
2017-05-28T03:01:27.289Z,7.22
2017-05-28T03:03:54.015Z,7.52
2017-05-28T03:06:20.737Z,8.18
2017-05-28T03:08:47.456Z,7.84
2017-05-28T03:11:14.173Z,7.06
2017-05-28T03:13:40.892Z,7.80
2017-05-28T03:16:07.604Z,7.04
2017-05-28T03:18:34.313Z,6.98
2017-05-28T03:21:01.036Z,7.52
2017-05-28T03:23:27.790Z,6.98
2017-05-28T03:25:54.509Z,7.22
2017-05-28T03:28:21.232Z,6.74
2017-05-28T03:30:47.962Z,7.46
2017-05-28T03:33:14.677Z,7.90
2017-05-28T03:35:41.396Z,7.80
2017-05-28T03:38:08.123Z,7.50
2017-05-28T03:40:34.845Z,7.80
2017-05-28T03:43:01.562Z,7.80
2017-05-28T03:45:28.293Z,7.66
2017-05-28T03:47:55.005Z,7.72
2017-05-28T03:50:21.719Z,7.28
2017-05-28T03:52:48.485Z,8.88
2017-05-28T03:55:15.198Z,7.96
2017-05-28T03:57:41.921Z,8.32
2017-05-28T04:00:08.640Z,8.18
2017-05-28T04:02:35.378Z,7.76
2017-05-28T04:05:02.090Z,8.20
2017-05-28T04:07:28.851Z,8.42
2017-05-28T04:09:55.564Z,7.74
2017-05-28T04:12:22.277Z,8.16
2017-05-28T04:14:49.078Z,7.78
2017-05-28T04:17:15.796Z,7.56
2017-05-28T04:19:42.515Z,8.64
2017-05-28T04:22:09.243Z,7.80
2017-05-28T04:24:35.960Z,9.26
2017-05-28T04:27:02.693Z,7.40
2017-05-28T04:29:29.437Z,8.16
2017-05-28T04:31:56.161Z,8.00
2017-05-28T04:34:22.878Z,7.80
2017-05-28T04:36:49.604Z,8.26
2017-05-28T04:39:16.329Z,7.80
2017-05-28T04:41:43.059Z,8.24
2017-05-28T04:44:09.801Z,8.38
2017-05-28T04:46:36.518Z,8.48
2017-05-28T04:49:03.236Z,7.86
2017-05-28T04:51:29.967Z,7.54
2017-05-28T04:53:56.685Z,8.64
2017-05-28T04:56:23.401Z,7.50
2017-05-28T04:58:50.164Z,7.96
2017-05-28T05:01:16.891Z,7.82
2017-05-28T05:03:43.599Z,7.40
2017-05-28T05:06:10.324Z,7.34
2017-05-28T05:08:37.043Z,7.84
2017-05-28T05:11:03.770Z,7.42
2017-05-28T05:13:30.565Z,6.50
2017-05-28T05:15:57.290Z,6.26
2017-05-28T05:18:24.001Z,5.80
2017-05-28T05:20:50.713Z,7.00
2017-05-28T05:23:17.445Z,6.74
2017-05-28T05:25:44.157Z,6.42
2017-05-28T05:28:10.866Z,6.26
2017-05-28T05:30:37.579Z,6.62
2017-05-28T05:33:04.298Z,6.50
2017-05-28T05:35:31.022Z,6.60
2017-05-28T05:37:57.745Z,5.58
2017-05-28T05:40:24.471Z,5.66
2017-05-28T05:42:51.192Z,5.70
2017-05-28T05:45:17.906Z,5.32
2017-05-28T05:47:44.627Z,5.66
2017-05-28T05:50:11.371Z,5.04
2017-05-28T05:52:38.092Z,5.46
2017-05-28T05:55:04.812Z,4.88
2017-05-28T05:57:31.529Z,5.58
2017-05-28T05:59:58.256Z,5.38
2017-05-28T06:02:24.979Z,5.76
2017-05-28T06:04:51.745Z,5.78
2017-05-28T06:07:18.468Z,5.02
2017-05-28T06:09:45.185Z,6.08
2017-05-28T06:12:12.066Z,5.22
2017-05-28T06:14:38.798Z,5.28
2017-05-28T06:17:05.780Z,5.56
2017-05-28T06:19:32.636Z,4.60
2017-05-28T06:21:59.565Z,4.70
2017-05-28T06:24:26.486Z,5.22
2017-05-28T06:26:53.593Z,4.90
2017-05-28T06:29:20.314Z,4.72
2017-05-28T06:31:47.030Z,4.86
2017-05-28T06:34:13.753Z,4.08
2017-05-28T06:36:40.772Z,4.90
2017-05-28T06:39:07.653Z,4.40
2017-05-28T06:41:34.503Z,4.42
2017-05-28T06:44:01.232Z,4.14
2017-05-28T06:46:27.965Z,4.76
2017-05-28T06:48:54.693Z,5.38
2017-05-28T06:51:21.419Z,4.58
2017-05-28T06:53:48.153Z,4.24
2017-05-28T06:56:14.872Z,4.58
2017-05-28T06:58:41.594Z,4.22
2017-05-28T07:01:08.318Z,4.64
2017-05-28T07:03:35.846Z,4.36
2017-05-28T07:06:02.564Z,4.20
2017-05-28T07:08:29.312Z,4.82
2017-05-28T07:10:56.048Z,4.42
2017-05-28T07:13:22.765Z,4.10
2017-05-28T07:15:49.506Z,4.60
2017-05-28T07:18:16.225Z,4.72
2017-05-28T07:20:42.940Z,3.88
2017-05-28T07:23:09.659Z,4.54
2017-05-28T07:25:36.372Z,4.68
2017-05-28T07:28:03.092Z,4.18
2017-05-28T07:30:29.812Z,4.94
2017-05-28T07:32:56.583Z,4.50
2017-05-28T07:35:23.296Z,4.76
2017-05-28T07:37:50.008Z,4.52
2017-05-28T07:40:16.729Z,4.92
2017-05-28T07:42:43.465Z,4.78
2017-05-28T07:45:10.186Z,4.60
2017-05-28T07:47:36.900Z,4.58
2017-05-28T07:50:03.625Z,5.12
2017-05-28T07:52:35.989Z,4.50
2017-05-28T07:55:02.713Z,4.32
2017-05-28T07:57:29.442Z,4.60
2017-05-28T07:59:56.159Z,4.38
2017-05-28T08:02:22.877Z,5.16
2017-05-28T08:04:49.606Z,4.82
2017-05-28T08:07:16.339Z,4.70
2017-05-28T08:09:43.115Z,4.32
2017-05-28T08:12:09.834Z,4.70
2017-05-28T08:14:36.570Z,4.28
2017-05-28T08:17:03.314Z,4.80
2017-05-28T08:19:30.024Z,4.96
2017-05-28T08:21:56.745Z,4.38
2017-05-28T08:24:23.468Z,4.20
2017-05-28T08:26:50.208Z,5.68
2017-05-28T08:29:16.939Z,6.12
2017-05-28T08:31:43.664Z,6.66
2017-05-28T08:34:10.386Z,5.60
2017-05-28T08:36:37.118Z,4.76
2017-05-28T08:39:03.877Z,5.46
2017-05-28T08:41:30.602Z,5.16
2017-05-28T08:43:57.344Z,5.18
2017-05-28T08:46:24.074Z,5.86
2017-05-28T08:48:50.794Z,5.34
2017-05-28T08:51:17.533Z,6.70
2017-05-28T08:53:44.267Z,5.38
2017-05-28T08:56:11.005Z,5.40
2017-05-28T08:58:37.718Z,5.04
2017-05-28T09:01:04.451Z,5.18
2017-05-28T09:03:31.163Z,4.34
2017-05-28T09:05:57.894Z,5.92
2017-05-28T09:08:24.667Z,5.32
2017-05-28T09:10:51.388Z,4.88
2017-05-28T09:13:18.120Z,5.98
2017-05-28T09:15:44.884Z,4.98
2017-05-28T09:18:11.601Z,4.98
2017-05-28T09:20:38.329Z,4.70
2017-05-28T09:23:05.050Z,4.64
2017-05-28T09:25:31.781Z,5.40
2017-05-28T09:27:58.513Z,5.24
2017-05-28T09:30:25.232Z,5.42
2017-05-28T09:32:51.949Z,4.94
2017-05-28T09:35:18.662Z,4.80
2017-05-28T09:37:45.439Z,5.14
2017-05-28T09:40:12.197Z,5.28
2017-05-28T09:42:38.936Z,5.00
2017-05-28T09:45:15.332Z,4.94
2017-05-28T09:47:49.968Z,5.00
2017-05-28T09:50:27.183Z,4.98
2017-05-28T09:52:53.937Z,5.10
2017-05-28T09:55:20.690Z,5.20
2017-05-28T09:57:47.581Z,5.52
2017-05-28T10:00:23.206Z,4.90
2017-05-28T10:02:57.869Z,5.22
2017-05-28T10:05:34.929Z,5.28
2017-05-28T10:08:08.618Z,4.84
2017-05-28T10:10:44.974Z,5.38
2017-05-28T10:13:11.768Z,5.12
2017-05-28T10:15:38.546Z,5.10
2017-05-28T10:18:05.328Z,5.78
2017-05-28T10:20:32.075Z,5.30
2017-05-28T10:22:58.812Z,4.64
2017-05-28T10:25:25.541Z,5.00
2017-05-28T10:27:52.401Z,5.14
2017-05-28T10:30:19.143Z,5.90
2017-05-28T10:32:45.877Z,5.24
2017-05-28T10:35:12.623Z,5.36
2017-05-28T10:37:39.366Z,5.60
2017-05-28T10:40:06.143Z,5.00
2017-05-28T10:42:32.894Z,5.90
2017-05-28T10:44:59.711Z,5.26
2017-05-28T10:47:26.454Z,5.66
2017-05-28T10:49:53.206Z,5.08
2017-05-28T10:52:19.924Z,5.44
2017-05-28T10:54:46.674Z,4.88
2017-05-28T10:57:13.436Z,5.20
2017-05-28T10:59:40.154Z,5.02
2017-05-28T11:02:06.898Z,4.90
2017-05-28T11:04:33.623Z,5.22
2017-05-28T11:07:00.336Z,5.20
2017-05-28T11:09:27.058Z,5.28
2017-05-28T11:11:53.801Z,6.34
2017-05-28T11:14:20.536Z,4.72
2017-05-28T11:16:47.262Z,5.04
2017-05-28T11:19:13.988Z,4.82
2017-05-28T11:21:44.191Z,4.74
2017-05-28T11:24:10.910Z,4.64
2017-05-28T11:26:37.629Z,4.58
2017-05-28T11:29:04.346Z,4.88
2017-05-28T11:31:31.070Z,4.76
2017-05-28T11:33:57.794Z,4.98
2017-05-28T11:36:24.533Z,4.22
2017-05-28T11:38:51.260Z,4.50
2017-05-28T11:41:17.978Z,4.52
2017-05-28T11:43:44.713Z,5.52
2017-05-28T11:46:11.428Z,4.80
2017-05-28T11:48:38.157Z,5.12
2017-05-28T11:51:04.879Z,4.52
2017-05-28T11:53:31.605Z,4.84
2017-05-28T11:55:58.332Z,4.54
2017-05-28T11:58:25.054Z,4.38
2017-05-28T12:00:51.783Z,6.06
2017-05-28T12:03:18.551Z,4.50
2017-05-28T12:05:45.273Z,4.16
2017-05-28T12:08:11.980Z,4.40
2017-05-28T12:10:38.741Z,4.22
2017-05-28T12:13:05.453Z,4.14
2017-05-28T12:15:32.172Z,4.08
2017-05-28T12:17:58.923Z,4.38
2017-05-28T12:20:25.653Z,4.06
2017-05-28T12:22:52.372Z,4.44
2017-05-28T12:25:19.141Z,4.02
2017-05-28T12:27:45.860Z,4.52
2017-05-28T12:30:12.580Z,3.90
2017-05-28T12:32:39.302Z,4.18
2017-05-28T12:35:06.022Z,3.66
2017-05-28T12:37:32.739Z,4.52
2017-05-28T12:39:59.469Z,4.10
2017-05-28T12:42:26.191Z,4.32
2017-05-28T12:44:52.910Z,3.54
2017-05-28T12:47:19.756Z,3.56
2017-05-28T12:49:46.468Z,3.90
2017-05-28T12:52:13.186Z,3.82
2017-05-28T12:54:39.917Z,4.00
2017-05-28T12:57:06.635Z,4.00
2017-05-28T12:59:33.349Z,3.90
2017-05-28T13:02:00.067Z,3.82
2017-05-28T13:04:26.801Z,3.72
2017-05-28T13:06:53.548Z,3.50
2017-05-28T13:09:20.289Z,4.26
2017-05-28T13:11:47.013Z,3.82
2017-05-28T13:14:13.742Z,4.50
2017-05-28T13:16:40.505Z,3.62
2017-05-28T13:19:07.224Z,3.56
2017-05-28T13:21:33.940Z,3.40
2017-05-28T13:24:00.656Z,3.54
2017-05-28T13:26:27.375Z,3.56
2017-05-28T13:28:54.111Z,3.60
2017-05-28T13:31:20.845Z,3.12
2017-05-28T13:33:47.571Z,3.64
2017-05-28T13:36:14.305Z,4.30
2017-05-28T13:38:41.046Z,3.32
2017-05-28T13:41:07.771Z,3.36
2017-05-28T13:43:34.491Z,3.62
2017-05-28T13:46:01.238Z,4.28
2017-05-28T13:48:27.996Z,3.50
2017-05-28T13:50:54.737Z,3.04
2017-05-28T13:53:21.503Z,3.40
2017-05-28T13:55:48.225Z,3.36
2017-05-28T13:58:14.949Z,3.82
2017-05-28T14:00:41.739Z,3.40
2017-05-28T14:03:08.466Z,3.72
2017-05-28T14:05:35.199Z,3.84
2017-05-28T14:08:01.922Z,3.78
2017-05-28T14:10:28.663Z,3.00
2017-05-28T14:12:55.388Z,3.50
2017-05-28T14:15:22.149Z,3.70
2017-05-28T14:17:49.308Z,3.22
2017-05-28T14:20:16.016Z,4.28
2017-05-28T14:22:42.792Z,3.20
2017-05-28T14:25:09.511Z,3.34
2017-05-28T14:27:36.223Z,3.18
2017-05-28T14:30:03.033Z,3.26
2017-05-28T14:32:29.771Z,3.42
2017-05-28T14:34:56.489Z,3.52
2017-05-28T14:37:23.215Z,3.28
2017-05-28T14:39:49.938Z,2.82
2017-05-28T14:42:16.690Z,3.52
2017-05-28T14:44:43.414Z,3.36
2017-05-28T14:47:10.139Z,2.90
2017-05-28T14:49:36.906Z,2.64
2017-05-28T14:52:03.632Z,3.26
2017-05-28T14:54:30.351Z,3.14
2017-05-28T14:56:57.083Z,3.60
2017-05-28T14:59:23.804Z,3.08
2017-05-28T15:01:50.536Z,3.18
2017-05-28T15:04:17.252Z,2.88
2017-05-28T15:06:43.988Z,3.48
2017-05-28T15:09:10.716Z,2.80
2017-05-28T15:11:37.434Z,3.00
2017-05-28T15:14:04.165Z,3.20
2017-05-28T15:16:30.884Z,2.90
2017-05-28T15:18:57.605Z,2.94
2017-05-28T15:21:24.326Z,3.10
2017-05-28T15:23:51.055Z,2.78
2017-05-28T15:26:17.786Z,3.40
2017-05-28T15:28:44.509Z,2.52
2017-05-28T15:31:11.233Z,3.44
2017-05-28T15:33:37.945Z,3.38
2017-05-28T15:36:04.690Z,2.86
2017-05-28T15:38:31.412Z,3.38
2017-05-28T15:40:58.130Z,3.44
2017-05-28T15:43:24.901Z,3.18
2017-05-28T15:45:51.619Z,3.10
2017-05-28T15:48:18.350Z,3.36
2017-05-28T15:50:45.078Z,2.80
2017-05-28T15:53:11.805Z,2.86
2017-05-28T15:55:38.531Z,2.86
2017-05-28T15:58:05.277Z,2.70
2017-05-28T16:00:32.016Z,3.02
2017-05-28T16:02:58.766Z,2.80
2017-05-28T16:05:25.484Z,2.88
2017-05-28T16:07:52.218Z,2.70
2017-05-28T16:10:18.943Z,3.30
2017-05-28T16:12:45.669Z,3.02
2017-05-28T16:15:12.402Z,2.68
2017-05-28T16:17:39.126Z,2.72
2017-05-28T16:20:05.897Z,2.86
2017-05-28T16:22:32.626Z,3.20
2017-05-28T16:24:59.364Z,3.30
2017-05-28T16:27:26.091Z,2.90
2017-05-28T16:29:52.817Z,2.64
2017-05-28T16:32:19.535Z,2.88
2017-05-28T16:34:46.257Z,2.86
2017-05-28T16:37:12.980Z,2.98
2017-05-28T16:39:39.709Z,3.28
2017-05-28T16:42:06.478Z,3.56
2017-05-28T16:44:33.206Z,2.70
2017-05-28T16:46:59.932Z,2.98
2017-05-28T16:49:26.667Z,2.54
2017-05-28T16:51:53.403Z,2.74
2017-05-28T16:54:20.131Z,3.06
2017-05-28T16:56:46.853Z,2.98
2017-05-28T16:59:13.576Z,2.40
2017-05-28T17:01:40.296Z,2.96
2017-05-28T17:04:07.040Z,2.78
2017-05-28T17:06:33.771Z,2.74
2017-05-28T17:09:00.489Z,3.12
2017-05-28T17:11:27.210Z,2.48
2017-05-28T17:13:53.937Z,3.10
2017-05-28T17:16:20.673Z,3.14
2017-05-28T17:18:47.404Z,3.02
2017-05-28T17:21:14.134Z,3.24
2017-05-28T17:23:40.845Z,2.98
2017-05-28T17:26:07.583Z,3.06
2017-05-28T17:28:34.303Z,3.02
2017-05-28T17:31:01.042Z,3.26
2017-05-28T17:33:27.762Z,3.10
2017-05-28T17:35:54.496Z,3.02
2017-05-28T17:38:21.227Z,3.02
2017-05-28T17:40:47.973Z,3.20
2017-05-28T17:43:15.732Z,3.28
2017-05-28T17:45:42.456Z,2.90
2017-05-28T17:48:09.181Z,2.92
2017-05-28T17:50:35.902Z,2.96
2017-05-28T17:53:02.621Z,3.24
2017-05-28T17:55:29.385Z,3.64
2017-05-28T17:57:56.117Z,3.10
2017-05-28T18:00:22.837Z,3.02
2017-05-28T18:02:49.606Z,3.04
2017-05-28T18:05:16.326Z,3.12
2017-05-28T18:07:43.041Z,3.26
2017-05-28T18:10:09.779Z,4.78
2017-05-28T18:12:36.513Z,3.24
2017-05-28T18:15:03.229Z,3.26
2017-05-28T18:17:29.954Z,3.36
2017-05-28T18:19:56.676Z,2.76
2017-05-28T18:22:23.403Z,3.24
2017-05-28T18:24:50.244Z,3.30
2017-05-28T18:27:16.983Z,2.96
2017-05-28T18:29:43.714Z,2.98
2017-05-28T18:32:10.449Z,3.24
2017-05-28T18:34:37.185Z,3.02
2017-05-28T18:37:06.268Z,3.02
2017-05-28T18:39:33.000Z,3.04
2017-05-28T18:41:59.724Z,3.48
2017-05-28T18:44:26.437Z,3.26
2017-05-28T18:46:53.159Z,3.70
2017-05-28T18:49:19.914Z,3.46
2017-05-28T18:51:46.644Z,4.00
2017-05-28T18:54:13.463Z,4.02
2017-05-28T18:56:40.186Z,3.24
2017-05-28T18:59:06.909Z,3.60
2017-05-28T19:01:33.663Z,3.74
2017-05-28T19:04:00.442Z,3.74
2017-05-28T19:06:27.294Z,3.88
2017-05-28T19:08:54.045Z,3.10
2017-05-28T19:11:20.964Z,3.72
2017-05-28T19:13:48.632Z,3.48
2017-05-28T19:16:16.215Z,3.20
2017-05-28T19:18:48.379Z,3.96
2017-05-28T19:21:24.415Z,3.78
2017-05-28T19:23:51.166Z,3.82
2017-05-28T19:26:18.019Z,3.64
2017-05-28T19:28:44.816Z,3.40
2017-05-28T19:31:11.614Z,3.00
2017-05-28T19:33:38.356Z,4.16
2017-05-28T19:36:05.108Z,3.70
2017-05-28T19:38:31.893Z,3.22
2017-05-28T19:40:59.975Z,3.80
2017-05-28T19:43:26.762Z,3.16
2017-05-28T19:45:53.579Z,3.10
2017-05-28T19:48:20.388Z,3.64
2017-05-28T19:50:47.161Z,3.56
2017-05-28T19:53:13.935Z,3.70
2017-05-28T19:55:40.683Z,3.10
2017-05-28T19:58:07.435Z,3.80
2017-05-28T20:00:34.170Z,3.60
2017-05-28T20:03:01.622Z,3.14
2017-05-28T20:05:28.352Z,3.32
2017-05-28T20:07:55.211Z,3.92
2017-05-28T20:10:21.957Z,3.62
2017-05-28T20:12:48.871Z,3.82
2017-05-28T20:15:15.718Z,3.58
2017-05-28T20:17:42.503Z,3.70
2017-05-28T20:20:09.321Z,3.92
2017-05-28T20:22:36.193Z,4.74
2017-05-28T20:25:03.179Z,3.58
2017-05-28T20:27:29.966Z,3.92
2017-05-28T20:29:56.700Z,3.88
2017-05-28T20:32:23.460Z,3.54
2017-05-28T20:34:50.489Z,3.68
2017-05-28T20:37:17.233Z,4.34
2017-05-28T20:39:44.045Z,4.28
2017-05-28T20:42:10.837Z,4.08
2017-05-28T20:44:37.631Z,3.84
2017-05-28T20:47:04.444Z,4.28
2017-05-28T20:49:31.198Z,3.78
2017-05-28T20:51:57.947Z,4.26
2017-05-28T20:54:24.707Z,3.72
2017-05-28T20:56:51.444Z,3.94
2017-05-28T20:59:18.245Z,4.60
2017-05-28T21:01:45.011Z,4.24
2017-05-28T21:04:11.774Z,4.38
2017-05-28T21:06:38.548Z,4.44
2017-05-28T21:09:05.286Z,4.90
2017-05-28T21:11:32.040Z,4.82
2017-05-28T21:13:58.781Z,4.60
2017-05-28T21:16:25.611Z,3.92
2017-05-28T21:18:52.421Z,4.30
2017-05-28T21:21:19.144Z,4.62
2017-05-28T21:23:45.858Z,4.98
2017-05-28T21:26:12.756Z,4.26
2017-05-28T21:28:39.541Z,4.14
2017-05-28T21:31:06.263Z,4.22
2017-05-28T21:33:32.999Z,4.68
2017-05-28T21:35:59.723Z,4.30
2017-05-28T21:38:26.438Z,4.84
2017-05-28T21:40:53.209Z,3.82
2017-05-28T21:43:19.929Z,3.90
2017-05-28T21:45:46.644Z,3.72
2017-05-28T21:48:13.369Z,3.96
2017-05-28T21:50:40.086Z,4.38
2017-05-28T21:53:06.809Z,4.58
2017-05-28T21:55:33.528Z,5.00
2017-05-28T21:58:00.246Z,4.58
2017-05-28T22:00:26.966Z,4.78
2017-05-28T22:02:53.733Z,4.90
2017-05-28T22:05:20.444Z,4.90
2017-05-28T22:07:47.164Z,3.98
2017-05-28T22:10:13.895Z,4.08
2017-05-28T22:12:40.616Z,4.90
2017-05-28T22:15:07.357Z,4.50
2017-05-28T22:17:34.086Z,4.78
2017-05-28T22:20:00.814Z,4.30
2017-05-28T22:22:27.543Z,4.72
2017-05-28T22:24:54.265Z,4.36
2017-05-28T22:27:20.990Z,4.66
2017-05-28T22:29:47.708Z,5.42
2017-05-28T22:32:14.442Z,4.52
2017-05-28T22:34:41.169Z,4.72
2017-05-28T22:37:07.886Z,4.90
2017-05-28T22:39:34.631Z,5.00
2017-05-28T22:42:01.352Z,5.48
2017-05-28T22:44:28.079Z,4.78
2017-05-28T22:46:54.806Z,4.92
2017-05-28T22:49:21.519Z,4.86
2017-05-28T22:51:48.259Z,4.82
2017-05-28T22:54:15.025Z,4.78
2017-05-28T22:56:41.741Z,4.80
2017-05-28T22:59:08.467Z,4.92
2017-05-28T23:01:35.189Z,5.00
2017-05-28T23:04:01.909Z,4.38
2017-05-28T23:06:28.652Z,4.84
2017-05-28T23:08:55.376Z,5.06
2017-05-28T23:11:22.086Z,4.72
2017-05-28T23:13:48.801Z,5.50
2017-05-28T23:16:15.539Z,5.08
2017-05-28T23:18:42.260Z,4.84
2017-05-28T23:21:09.024Z,5.30
2017-05-28T23:23:35.743Z,4.74
2017-05-28T23:26:02.464Z,5.16
2017-05-28T23:28:29.181Z,4.38
2017-05-28T23:30:55.900Z,5.20
2017-05-28T23:33:22.619Z,4.92
2017-05-28T23:35:49.350Z,4.60
2017-05-28T23:38:16.078Z,5.58
2017-05-28T23:40:42.798Z,5.08
2017-05-28T23:43:09.515Z,4.68
2017-05-28T23:45:36.233Z,5.76
2017-05-28T23:48:02.969Z,5.10
2017-05-28T23:50:29.730Z,4.88
2017-05-28T23:52:56.477Z,4.86
2017-05-28T23:55:23.199Z,4.88
2017-05-28T23:57:49.922Z,5.02
